createdAt,value
2023-11-25T00:01:16.094Z,1.20
2023-11-25T00:04:04.338Z,1.45
2023-11-25T00:06:51.904Z,1.27
2023-11-25T00:09:39.560Z,1.13
2023-11-25T00:12:27.261Z,1.40
2023-11-25T00:15:15.960Z,1.20
2023-11-25T00:18:04.913Z,1.70
2023-11-25T00:20:53.280Z,1.33
2023-11-25T00:23:40.737Z,1.33
2023-11-25T00:26:28.234Z,1.13
2023-11-25T00:29:17.282Z,1.50
2023-11-25T00:32:04.914Z,1.40
2023-11-25T00:34:52.461Z,1.65
2023-11-25T00:37:43.824Z,1.30
2023-11-25T00:40:31.405Z,1.40
2023-11-25T00:43:18.965Z,1.63
2023-11-25T00:46:06.613Z,1.35
2023-11-25T00:48:54.260Z,1.33
2023-11-25T00:51:41.948Z,1.33
2023-11-25T00:54:30.740Z,1.25
2023-11-25T00:57:18.267Z,1.10
2023-11-25T01:00:07.400Z,1.27
2023-11-25T01:02:56.670Z,1.50
2023-11-25T01:05:44.199Z,1.45
2023-11-25T01:08:31.678Z,1.30
2023-11-25T01:11:19.136Z,1.40
2023-11-25T01:14:07.140Z,1.65
2023-11-25T01:16:55.010Z,1.77
2023-11-25T01:19:42.921Z,1.40
2023-11-25T01:22:30.486Z,1.60
2023-11-25T01:25:18.052Z,1.80
2023-11-25T01:28:06.570Z,1.30
2023-11-25T01:30:54.316Z,1.63
2023-11-25T01:33:44.863Z,1.50
2023-11-25T01:36:32.438Z,1.45
2023-11-25T01:39:19.925Z,1.73
2023-11-25T01:42:07.504Z,1.70
2023-11-25T01:44:55.026Z,1.70
2023-11-25T01:47:43.485Z,1.65
2023-11-25T01:50:38.482Z,1.60
2023-11-25T01:53:27.507Z,1.70
2023-11-25T01:56:15.817Z,1.50
2023-11-25T01:59:08.280Z,1.50
2023-11-25T02:01:57.649Z,1.23
2023-11-25T02:04:45.449Z,1.77
2023-11-25T02:07:33.104Z,1.30
2023-11-25T02:10:21.281Z,1.67
2023-11-25T02:13:09.797Z,1.50
2023-11-25T02:15:57.376Z,1.60
2023-11-25T02:18:45.188Z,1.50
2023-11-25T02:21:32.650Z,1.30
2023-11-25T02:24:20.720Z,1.50
2023-11-25T02:27:09.095Z,1.55
2023-11-25T02:29:57.164Z,1.23
2023-11-25T02:32:45.407Z,1.60
2023-11-25T02:35:32.929Z,1.30
2023-11-25T02:38:21.618Z,1.05
2023-11-25T02:41:10.697Z,1.40
2023-11-25T02:43:58.355Z,1.27
2023-11-25T02:46:47.082Z,1.20
2023-11-25T02:49:34.677Z,1.80
2023-11-25T02:52:27.520Z,1.48
2023-11-25T02:55:15.235Z,1.40
2023-11-25T02:58:03.593Z,1.40
2023-11-25T03:00:51.181Z,1.20
2023-11-25T03:03:43.329Z,1.30
2023-11-25T03:06:32.413Z,1.25
2023-11-25T03:09:19.867Z,1.42
2023-11-25T03:12:07.507Z,1.63
2023-11-25T03:14:54.944Z,1.92
2023-11-25T03:17:42.447Z,1.80
2023-11-25T03:20:29.939Z,1.88
2023-11-25T03:23:17.650Z,1.63
2023-11-25T03:26:06.667Z,2.45
2023-11-25T03:28:54.032Z,2.05
2023-11-25T03:31:44.712Z,1.60
2023-11-25T03:34:32.310Z,1.45
2023-11-25T03:37:20.685Z,1.40
2023-11-25T03:40:17.328Z,1.58
2023-11-25T03:43:04.935Z,1.48
2023-11-25T03:45:52.532Z,1.30
2023-11-25T03:48:40.082Z,2.10
2023-11-25T03:51:27.587Z,1.30
2023-11-25T03:54:15.080Z,1.77
2023-11-25T03:57:02.685Z,1.58
2023-11-25T03:59:50.196Z,1.63
2023-11-25T04:02:37.804Z,1.60
2023-11-25T04:05:26.253Z,1.80
2023-11-25T04:08:13.811Z,1.30
2023-11-25T04:11:01.664Z,1.90
2023-11-25T04:13:49.154Z,1.63
2023-11-25T04:16:36.823Z,1.85
2023-11-25T04:19:24.471Z,1.73
2023-11-25T04:22:12.089Z,1.40
2023-11-25T04:24:59.733Z,1.58
2023-11-25T04:27:50.673Z,1.20
2023-11-25T04:30:38.242Z,1.63
2023-11-25T04:33:26.188Z,1.52
2023-11-25T04:36:19.350Z,1.60
2023-11-25T04:39:07.292Z,1.55
2023-11-25T04:41:54.786Z,1.48
2023-11-25T04:44:42.222Z,1.50
2023-11-25T04:47:29.822Z,1.45
2023-11-25T04:50:18.975Z,1.38
2023-11-25T04:53:07.102Z,1.33
2023-11-25T04:55:54.655Z,1.45
2023-11-25T04:58:43.060Z,1.42
2023-11-25T05:01:31.645Z,1.35
2023-11-25T05:04:19.208Z,1.60
2023-11-25T05:07:06.896Z,1.75
2023-11-25T05:09:54.394Z,1.60
2023-11-25T05:12:45.707Z,2.25
2023-11-25T05:15:33.197Z,1.60
2023-11-25T05:18:20.684Z,1.23
2023-11-25T05:21:09.733Z,1.70
2023-11-25T05:23:57.619Z,1.55
2023-11-25T05:26:45.250Z,1.55
2023-11-25T05:29:33.248Z,1.42
2023-11-25T05:32:20.840Z,1.50
2023-11-25T05:35:08.679Z,1.60
2023-11-25T05:37:56.182Z,1.60
2023-11-25T05:40:43.695Z,1.60
2023-11-25T05:43:31.159Z,1.63
2023-11-25T05:46:23.248Z,1.45
2023-11-25T05:49:10.738Z,1.45
2023-11-25T05:52:00.899Z,1.80
2023-11-25T05:54:49.092Z,1.95
2023-11-25T05:57:37.505Z,1.92
2023-11-25T06:00:25.026Z,1.63
2023-11-25T06:03:12.637Z,1.50
2023-11-25T06:06:00.042Z,1.73
2023-11-25T06:08:47.706Z,1.58
2023-11-25T06:11:35.238Z,1.60
2023-11-25T06:14:22.623Z,1.40
2023-11-25T06:17:10.122Z,1.70
2023-11-25T06:19:57.660Z,1.58
2023-11-25T06:22:45.412Z,1.40
2023-11-25T06:25:32.916Z,1.67
2023-11-25T06:28:25.574Z,1.50
2023-11-25T06:31:14.353Z,1.75
2023-11-25T06:34:02.353Z,1.35
2023-11-25T06:36:50.050Z,1.50
2023-11-25T06:39:38.358Z,1.42
2023-11-25T06:42:26.502Z,1.45
2023-11-25T06:45:15.535Z,1.70
2023-11-25T06:48:04.163Z,1.88
2023-11-25T06:50:55.069Z,1.88
2023-11-25T06:53:42.591Z,2.00
2023-11-25T06:56:30.071Z,1.48
2023-11-25T06:59:19.532Z,1.50
2023-11-25T07:02:07.499Z,1.63
2023-11-25T07:04:55.090Z,1.60
2023-11-25T07:07:42.887Z,1.48
2023-11-25T07:10:36.713Z,1.35
2023-11-25T07:13:25.020Z,1.50
2023-11-25T07:16:15.181Z,1.90
2023-11-25T07:19:02.755Z,1.50
2023-11-25T07:21:51.772Z,1.55
2023-11-25T07:24:46.267Z,1.63
2023-11-25T07:27:34.409Z,1.40
2023-11-25T07:30:21.827Z,1.90
2023-11-25T07:33:09.879Z,2.30
2023-11-25T07:35:58.605Z,1.63
2023-11-25T07:38:46.089Z,1.80
2023-11-25T07:41:33.488Z,1.58
2023-11-25T07:44:25.442Z,1.40
2023-11-25T07:47:17.247Z,1.58
2023-11-25T07:50:05.508Z,1.75
2023-11-25T07:52:53.315Z,1.50
2023-11-25T07:55:41.519Z,1.70
2023-11-25T07:58:29.008Z,1.63
2023-11-25T08:01:17.996Z,1.90
2023-11-25T08:04:06.260Z,1.55
2023-11-25T08:06:53.740Z,1.85
2023-11-25T08:09:41.303Z,2.10
2023-11-25T08:12:28.703Z,1.75
2023-11-25T08:15:16.475Z,1.70
2023-11-25T08:18:05.484Z,2.03
2023-11-25T08:20:53.238Z,2.13
2023-11-25T08:23:42.512Z,1.73
2023-11-25T08:26:31.311Z,1.60
2023-11-25T08:29:19.925Z,1.70
2023-11-25T08:32:10.728Z,1.70
2023-11-25T08:34:59.005Z,1.95
2023-11-25T08:37:49.436Z,2.10
2023-11-25T08:40:37.097Z,1.98
2023-11-25T08:43:25.370Z,1.95
2023-11-25T08:46:13.416Z,2.72
2023-11-25T08:49:00.916Z,2.03
2023-11-25T08:51:48.448Z,2.13
2023-11-25T08:54:38.821Z,1.95
2023-11-25T08:57:26.302Z,2.17
2023-11-25T09:00:23.735Z,2.00
2023-11-25T09:03:11.656Z,2.00
2023-11-25T09:05:59.430Z,1.60
2023-11-25T09:08:46.938Z,1.83
2023-11-25T09:11:35.250Z,1.70
2023-11-25T09:14:22.770Z,1.73
2023-11-25T09:17:16.906Z,2.08
2023-11-25T09:20:05.921Z,2.08
2023-11-25T09:22:53.551Z,1.80
2023-11-25T09:25:41.079Z,2.03
2023-11-25T09:28:31.395Z,2.00
2023-11-25T09:31:19.516Z,1.70
2023-11-25T09:34:10.043Z,1.67
2023-11-25T09:36:57.544Z,1.70
2023-11-25T09:39:45.034Z,1.60
2023-11-25T09:42:33.088Z,2.08
2023-11-25T09:45:23.190Z,1.50
2023-11-25T09:48:10.761Z,1.73
2023-11-25T09:50:59.099Z,2.22
2023-11-25T09:53:49.482Z,1.60
2023-11-25T09:56:37.761Z,1.65
2023-11-25T09:59:28.001Z,1.50
2023-11-25T10:02:17.895Z,1.98
2023-11-25T10:05:07.088Z,2.15
2023-11-25T10:07:56.759Z,2.03
2023-11-25T10:11:02.852Z,2.47
2023-11-25T10:13:51.252Z,1.55
2023-11-25T10:16:39.038Z,1.58
2023-11-25T10:19:28.696Z,1.52
2023-11-25T10:22:19.169Z,1.80
2023-11-25T10:25:07.439Z,1.92
2023-11-25T10:27:56.483Z,1.70
2023-11-25T10:30:44.394Z,1.58
2023-11-25T10:33:32.305Z,1.70
2023-11-25T10:36:19.833Z,2.88
2023-11-25T10:39:09.914Z,1.77
2023-11-25T10:41:59.348Z,1.80
2023-11-25T10:44:49.738Z,2.00
2023-11-25T10:47:37.425Z,1.63
2023-11-25T10:50:27.001Z,1.48
2023-11-25T10:53:15.954Z,1.63
2023-11-25T10:56:05.374Z,1.88
2023-11-25T10:58:54.399Z,1.58
2023-11-25T11:01:47.503Z,1.52
2023-11-25T11:04:44.624Z,1.60
2023-11-25T11:07:38.408Z,1.50
2023-11-25T11:10:52.996Z,1.60
2023-11-25T11:13:47.562Z,1.50
2023-11-25T11:16:41.191Z,1.50
2023-11-25T11:19:36.777Z,1.52
2023-11-25T11:22:24.972Z,1.55
2023-11-25T11:25:49.475Z,1.42
2023-11-25T11:29:05.868Z,1.60
2023-11-25T11:32:04.835Z,1.48
2023-11-25T11:34:52.814Z,1.95
2023-11-25T11:37:48.806Z,1.63
2023-11-25T11:40:36.363Z,1.48
2023-11-25T11:43:23.947Z,1.60
2023-11-25T11:46:11.896Z,1.20
2023-11-25T11:49:02.258Z,1.70
2023-11-25T11:52:03.459Z,2.53
2023-11-25T11:54:50.964Z,1.58
2023-11-25T11:58:06.250Z,1.90
2023-11-25T12:01:03.439Z,2.10
2023-11-25T12:03:53.222Z,1.27
2023-11-25T12:06:41.051Z,1.75
2023-11-25T12:09:28.761Z,1.40
2023-11-25T12:12:16.412Z,1.50
2023-11-25T12:15:06.150Z,1.40
2023-11-25T12:17:54.453Z,1.50
2023-11-25T12:20:42.083Z,1.52
2023-11-25T12:23:41.162Z,1.30
2023-11-25T12:26:37.819Z,1.30
2023-11-25T12:29:26.245Z,1.20
2023-11-25T12:32:13.748Z,1.23
2023-11-25T12:35:01.363Z,1.02
2023-11-25T12:38:04.330Z,1.00
2023-11-25T12:40:58.687Z,1.30
2023-11-25T12:44:07.686Z,1.20
2023-11-25T12:47:07.513Z,1.58
2023-11-25T12:50:05.965Z,1.20
2023-11-25T12:53:10.010Z,1.10
2023-11-25T12:55:58.946Z,1.33
2023-11-25T12:58:46.584Z,1.30
2023-11-25T13:01:34.226Z,1.20
2023-11-25T13:04:21.904Z,1.40
2023-11-25T13:07:10.653Z,1.27
2023-11-25T13:09:58.272Z,1.40
2023-11-25T13:12:47.877Z,1.10
2023-11-25T13:15:35.912Z,1.40
2023-11-25T13:18:24.500Z,1.52
2023-11-25T13:21:12.808Z,1.02
2023-11-25T13:24:00.441Z,1.00
2023-11-25T13:26:48.372Z,1.58
2023-11-25T13:29:35.863Z,1.30
2023-11-25T13:32:23.438Z,1.30
2023-11-25T13:35:11.007Z,1.50
2023-11-25T13:38:02.076Z,1.30
2023-11-25T13:40:49.676Z,1.30
2023-11-25T13:43:37.276Z,1.30
2023-11-25T13:46:25.120Z,1.42
2023-11-25T13:49:13.917Z,1.30
2023-11-25T13:52:02.375Z,1.40
2023-11-25T13:54:49.860Z,1.08
2023-11-25T13:57:37.908Z,1.35
2023-11-25T14:00:27.950Z,1.20
2023-11-25T14:03:16.124Z,1.40
2023-11-25T14:06:04.565Z,1.10
2023-11-25T14:08:52.352Z,1.08
2023-11-25T14:11:40.239Z,1.10
2023-11-25T14:14:27.905Z,1.17
2023-11-25T14:17:18.912Z,1.20
2023-11-25T14:20:16.523Z,1.50
2023-11-25T14:23:06.808Z,1.05
2023-11-25T14:25:55.093Z,1.40
2023-11-25T14:28:42.694Z,1.25
2023-11-25T14:31:33.788Z,1.20
2023-11-25T14:34:22.248Z,1.38
2023-11-25T14:37:09.735Z,2.15
2023-11-25T14:40:01.159Z,1.30
2023-11-25T14:42:49.395Z,1.50
2023-11-25T14:45:37.066Z,1.13
2023-11-25T14:48:24.673Z,1.40
2023-11-25T14:51:12.528Z,1.23
2023-11-25T14:54:00.221Z,1.05
2023-11-25T14:56:47.726Z,1.30
2023-11-25T14:59:35.849Z,1.10
2023-11-25T15:02:23.555Z,1.17
2023-11-25T15:05:11.312Z,1.17
2023-11-25T15:07:58.934Z,1.25
2023-11-25T15:10:48.194Z,1.05
2023-11-25T15:13:36.093Z,1.45
2023-11-25T15:16:23.693Z,1.45
2023-11-25T15:19:11.323Z,1.67
2023-11-25T15:21:58.943Z,1.10
2023-11-25T15:24:46.419Z,1.35
2023-11-25T15:27:34.709Z,1.10
2023-11-25T15:30:23.932Z,1.10
2023-11-25T15:33:13.242Z,1.33
2023-11-25T15:36:00.766Z,1.10
2023-11-25T15:38:48.747Z,1.20
2023-11-25T15:41:36.873Z,1.30
2023-11-25T15:44:24.537Z,0.90
2023-11-25T15:47:12.017Z,1.20
2023-11-25T15:49:59.925Z,1.00
2023-11-25T15:52:47.547Z,1.20
2023-11-25T15:55:35.169Z,1.20
2023-11-25T15:58:22.826Z,1.25
2023-11-25T16:01:12.768Z,1.17
2023-11-25T16:04:00.391Z,0.90
2023-11-25T16:06:47.907Z,1.50
2023-11-25T16:09:36.949Z,1.17
2023-11-25T16:12:26.549Z,1.23
2023-11-25T16:15:16.412Z,1.30
2023-11-25T16:18:04.788Z,1.20
2023-11-25T16:20:52.406Z,1.35
2023-11-25T16:23:41.568Z,1.50
2023-11-25T16:26:30.691Z,0.88
2023-11-25T16:29:19.732Z,1.60
2023-11-25T16:32:07.760Z,1.05
2023-11-25T16:34:56.280Z,1.30
2023-11-25T16:37:45.305Z,1.10
2023-11-25T16:40:32.851Z,1.00
2023-11-25T16:43:25.921Z,1.20
2023-11-25T16:46:13.654Z,1.00
2023-11-25T16:49:07.629Z,1.15
2023-11-25T16:51:59.221Z,0.90
2023-11-25T16:54:46.782Z,1.00
2023-11-25T16:57:34.372Z,0.82
2023-11-25T17:00:22.005Z,0.90
2023-11-25T17:03:09.714Z,0.93
2023-11-25T17:05:58.381Z,1.05
2023-11-25T17:08:46.764Z,1.10
2023-11-25T17:11:34.174Z,0.95
2023-11-25T17:14:24.317Z,1.20
2023-11-25T17:17:13.442Z,1.30
2023-11-25T17:20:01.488Z,0.88
2023-11-25T17:22:48.993Z,1.30
2023-11-25T17:25:36.582Z,1.15
2023-11-25T17:28:25.723Z,1.35
2023-11-25T17:31:13.179Z,0.80
2023-11-25T17:34:00.809Z,1.13
2023-11-25T17:36:49.049Z,0.98
2023-11-25T17:39:37.903Z,0.90
2023-11-25T17:42:26.365Z,1.10
2023-11-25T17:45:16.996Z,1.10
2023-11-25T17:48:05.392Z,1.50
2023-11-25T17:50:53.625Z,1.50
2023-11-25T17:53:41.134Z,0.93
2023-11-25T17:56:28.730Z,0.93
2023-11-25T17:59:16.332Z,1.00
2023-11-25T18:02:04.143Z,1.02
2023-11-25T18:04:51.750Z,1.40
2023-11-25T18:07:43.627Z,0.93
2023-11-25T18:10:32.322Z,1.30
2023-11-25T18:13:19.760Z,1.25
2023-11-25T18:16:07.559Z,1.35
2023-11-25T18:18:55.527Z,1.00
2023-11-25T18:21:43.832Z,1.40
2023-11-25T18:24:31.392Z,1.48
2023-11-25T18:27:18.962Z,1.50
2023-11-25T18:30:07.004Z,1.50
2023-11-25T18:32:54.538Z,1.40
2023-11-25T18:35:42.141Z,1.33
2023-11-25T18:38:29.609Z,1.60
2023-11-25T18:41:17.106Z,1.42
2023-11-25T18:44:05.894Z,1.63
2023-11-25T18:46:53.526Z,1.50
2023-11-25T18:49:41.134Z,1.98
2023-11-25T18:52:28.619Z,1.60
2023-11-25T18:55:16.296Z,1.55
2023-11-25T18:58:03.712Z,1.40
2023-11-25T19:00:51.262Z,1.58
2023-11-25T19:03:38.825Z,1.63
2023-11-25T19:06:26.804Z,1.85
2023-11-25T19:09:15.951Z,1.50
2023-11-25T19:12:05.081Z,1.40
2023-11-25T19:14:56.857Z,1.27
2023-11-25T19:17:44.512Z,1.30
2023-11-25T19:20:32.115Z,1.52
2023-11-25T19:23:19.624Z,1.85
2023-11-25T19:26:07.433Z,1.38
2023-11-25T19:28:55.004Z,1.17
2023-11-25T19:31:42.540Z,1.30
2023-11-25T19:34:30.158Z,1.40
2023-11-25T19:37:17.813Z,1.25
2023-11-25T19:40:06.066Z,1.20
2023-11-25T19:42:53.573Z,1.00
2023-11-25T19:45:41.235Z,1.10
2023-11-25T19:48:28.752Z,1.20
2023-11-25T19:51:16.888Z,2.05
2023-11-25T19:54:04.683Z,1.40
2023-11-25T19:56:52.359Z,1.30
2023-11-25T19:59:39.869Z,1.38
2023-11-25T20:02:27.859Z,1.13
2023-11-25T20:05:16.920Z,1.95
2023-11-25T20:08:04.692Z,1.50
2023-11-25T20:10:52.184Z,1.70
2023-11-25T20:13:39.686Z,1.35
2023-11-25T20:16:33.017Z,1.10
2023-11-25T20:19:20.622Z,1.25
2023-11-25T20:22:09.902Z,1.40
2023-11-25T20:24:57.433Z,1.10
2023-11-25T20:27:45.448Z,1.20
2023-11-25T20:30:32.902Z,1.20
2023-11-25T20:33:20.478Z,1.13
2023-11-25T20:36:09.673Z,1.33
2023-11-25T20:38:57.381Z,1.83
2023-11-25T20:41:44.801Z,1.42
2023-11-25T20:44:32.308Z,1.75
2023-11-25T20:47:20.420Z,1.25
2023-11-25T20:50:08.397Z,1.23
2023-11-25T20:52:56.725Z,1.20
2023-11-25T20:55:44.432Z,1.23
2023-11-25T20:58:33.152Z,1.40
2023-11-25T21:01:21.141Z,1.33
2023-11-25T21:04:08.908Z,1.10
2023-11-25T21:06:56.728Z,1.20
2023-11-25T21:09:45.058Z,1.00
2023-11-25T21:12:34.445Z,1.20
2023-11-25T21:15:21.923Z,0.90
2023-11-25T21:18:09.365Z,0.90
2023-11-25T21:20:56.967Z,1.02
2023-11-25T21:23:44.644Z,1.00
2023-11-25T21:26:32.750Z,0.80
2023-11-25T21:29:20.281Z,0.80
2023-11-25T21:32:09.810Z,0.75
2023-11-25T21:34:57.694Z,0.93
2023-11-25T21:37:45.482Z,0.95
2023-11-25T21:40:33.179Z,0.80
2023-11-25T21:43:20.803Z,0.90
2023-11-25T21:46:09.597Z,0.90
2023-11-25T21:48:57.382Z,0.77
2023-11-25T21:51:45.091Z,1.10
2023-11-25T21:54:32.820Z,0.80
2023-11-25T21:57:20.351Z,1.00
2023-11-25T22:00:11.595Z,1.05
2023-11-25T22:02:59.285Z,1.05
2023-11-25T22:05:46.804Z,1.00
2023-11-25T22:08:34.486Z,1.00
2023-11-25T22:11:24.656Z,1.10
2023-11-25T22:14:12.220Z,0.90
2023-11-25T22:16:59.827Z,0.80
2023-11-25T22:19:47.339Z,0.80
2023-11-25T22:22:35.092Z,0.77
2023-11-25T22:25:35.580Z,1.17
2023-11-25T22:28:23.226Z,0.80
2023-11-25T22:31:12.236Z,0.70
2023-11-25T22:34:00.508Z,0.90
2023-11-25T22:36:48.021Z,1.02
2023-11-25T22:39:37.031Z,0.88
2023-11-25T22:42:25.818Z,0.80
2023-11-25T22:45:13.401Z,1.02
2023-11-25T22:48:00.916Z,1.00
2023-11-25T22:50:48.501Z,1.00
2023-11-25T22:53:35.924Z,0.90
2023-11-25T22:56:23.441Z,0.98
2023-11-25T22:59:11.046Z,0.90
2023-11-25T23:02:02.376Z,1.30
2023-11-25T23:04:50.147Z,0.80
2023-11-25T23:07:37.635Z,0.77
2023-11-25T23:10:25.134Z,1.23
2023-11-25T23:13:12.641Z,0.98
2023-11-25T23:16:00.220Z,0.80
2023-11-25T23:18:47.962Z,0.60
2023-11-25T23:21:35.470Z,0.77
2023-11-25T23:24:22.993Z,0.80
2023-11-25T23:27:10.497Z,0.80
2023-11-25T23:29:58.191Z,0.73
2023-11-25T23:32:45.980Z,0.70
2023-11-25T23:35:33.495Z,0.60
2023-11-25T23:38:23.349Z,0.68
2023-11-25T23:41:11.025Z,0.90
2023-11-25T23:43:58.534Z,0.75
2023-11-25T23:46:46.111Z,0.80
2023-11-25T23:49:34.115Z,0.60
2023-11-25T23:52:21.614Z,0.70
2023-11-25T23:55:10.189Z,0.82
2023-11-25T23:57:57.641Z,0.65
